This is the latest recevied weather packets stored in our database for station/object KG2V. If no packets are shown the sender has not sent any weather packets the latest 10 day(s).
| Time | Temp. | Humidity | Pressure | Rain* | Wind** | Luminosity | Snow |
|---|---|---|---|---|---|---|---|
| 1777601184 | 6.11° C | 84% | 1009.1 hPa | 0 mm | - | 0 W/m² | - |
| 1777600273 | 6.11° C | 84% | 1009.2 hPa | 0 mm | - | 0 W/m² | - |
| 1777586905 | 8.89° C | 68% | 1007.5 hPa | 0 mm | - | 32 W/m² | - |
| 1777583548 | 9.44° C | 66% | 1007.1 hPa | 0 mm | - | 121 W/m² | - |
| 1777583247 | 9.44° C | 63% | 1006.9 hPa | 0 mm | - | 97 W/m² | - |
| 1777582033 | 9.44° C | 64% | 1006.9 hPa | 0 mm | - | 71 W/m² | - |
| 1777580212 | 10° C | 62% | 1006.8 hPa | 0 mm | - | 127 W/m² | - |
| 1777579298 | 9.44° C | 63% | 1006.7 hPa | 0 mm | - | 71 W/m² | - |
| 1777578689 | 9.44° C | 63% | 1006.5 hPa | 0 mm | - | 142 W/m² | - |
| 1777577774 | 9.44° C | 64% | 1006.6 hPa | 0 mm | - | 81 W/m² | - |
| 1777577471 | 9.44° C | 63% | 1006.7 hPa | 0 mm | - | 149 W/m² | - |
| 1777577168 | 10° C | 63% | 1006.7 hPa | 0 mm | - | 157 W/m² | - |
| 1777576864 | 10° C | 63% | 1007 hPa | 0 mm | - | 85 W/m² | - |
| 1777576259 | 10° C | 62% | 1006.9 hPa | 0 mm | - | 298 W/m² | - |
| 1777575956 | 10° C | 62% | 1006.8 hPa | 0 mm | - | 167 W/m² | - |
| 1777575651 | 10° C | 65% | 1006.7 hPa | 0 mm | - | 134 W/m² | - |
| 1777574133 | 9.44° C | 66% | 1006.7 hPa | 0 mm | - | 154 W/m² | - |
| 1777573829 | 9.44° C | 65% | 1006.6 hPa | 0 mm | - | 153 W/m² | - |
| 1777573524 | 10° C | 65% | 1006.7 hPa | 0 mm | - | 78 W/m² | - |
| 1777572612 | 10° C | 64% | 1006.8 hPa | 0 mm | - | 291 W/m² | - |
| 1777572306 | 10.56° C | 65% | 1006.7 hPa | 0 mm | - | 320 W/m² | - |
| 1777570483 | 9.44° C | 70% | 1006.7 hPa | 0 mm | - | 126 W/m² | - |
| 1777569876 | 9.44° C | 69% | 1006.5 hPa | 0 mm | - | 121 W/m² | - |
| 1777569572 | 9.44° C | 67% | 1006.3 hPa | 0 mm | - | 133 W/m² | - |
| 1777568965 | 9.44° C | 72% | 1006.5 hPa | 0 mm | - | 255 W/m² | - |
* Rain latest hour (hover to see other rain measurements)
** Current wind speed in m/s (hover to see current wind gust speed)